Aviation Digital Data Service (ADDS)

Output produced by METARs form (0547 UTC 18 March 2018)
found at http://aviationweather.gov/adds/metars/
METAR text: KGOO 180540Z AUTO 10003KT 10SM CLR 01/M01 A3002 RMK AO1
Conditions at: KGOO (GRASS VALLEY , CA, US) observed 0540 UTC 18 March 2018
Temperature: 1.0°C (34°F)
Dewpoint: -1.0°C (30°F) [RH = 86%]
Pressure (altimeter): 30.02 inches Hg (1016.7 mb)
Winds: from the E (100 degrees) at 3 MPH (3 knots; 1.6 m/s)
Visibility: 10 or more miles (16+ km)
Ceiling: at least 12,000 feet AGL
Clouds: sky clear below 12,000 feet AGL
Weather: automated observation with no human augmentation;
there may or may not be significant weather present at this time